Time;durP1;ratioP1;P1;durP2;ratioP2;P2;SDS_P1;SDS_P2;PMS_P1;PMS_P2;Temp;Humidity;BMP_temperature;BMP_pressure;BME280_temperature;BME280_humidity;BME280_pressure;Samples;Min_cycle;Max_cycle;Signal;HPM_P1;HPM_P2
2022/06/02 00:02:21;;;;;;;;;5.33;5.33;;;;;14.96;55.51;101318.56;5100778;27;45366;-71
2022/06/02 00:05:06;;;;;;;;;5.00;5.00;;;;;14.92;55.71;101327.16;5090967;27;45393;-71
2022/06/02 00:07:51;;;;;;;;;4.00;4.00;;;;;14.85;55.57;101319.06;5080298;27;45312;-71
2022/06/02 00:10:35;;;;;;;;;6.00;6.00;;;;;14.88;55.99;101326.72;5080393;27;45308;-71
2022/06/02 00:13:25;;;;;;;;;5.00;5.00;;;;;14.80;55.94;101322.31;5080460;27;45323;-71
2022/06/02 00:16:14;;;;;;;;;5.00;4.33;;;;;14.76;56.13;101329.03;5080317;27;45334;-71
2022/06/02 00:18:40;;;;;;;;;5.67;5.67;;;;;14.79;56.11;101339.41;5079774;28;45303;-71
2022/06/02 00:21:24;;;;;;;;;3.67;3.67;;;;;14.75;56.26;101341.56;5080173;27;45358;-71
2022/06/02 00:24:06;;;;;;;;;4.33;4.33;;;;;14.69;56.66;101336.97;5080256;27;45346;-71
2022/06/02 00:26:50;;;;;;;;;4.00;4.00;;;;;14.69;56.77;101352.22;5080264;27;45330;-71
2022/06/02 00:29:27;;;;;;;;;7.00;6.00;;;;;14.67;56.78;101351.56;5080158;28;45533;-71
2022/06/02 00:32:04;;;;;;;;;3.33;3.33;;;;;14.60;56.40;101362.16;5080032;27;45363;-71
2022/06/02 00:34:46;;;;;;;;;6.67;5.00;;;;;14.57;56.57;101363.38;5080036;27;45365;-71
2022/06/02 00:37:18;;;;;;;;;5.00;5.00;;;;;14.57;56.67;101366.03;5080116;27;45326;-71
2022/06/02 00:39:46;;;;;;;;;5.00;5.00;;;;;14.50;56.35;101357.09;5079948;28;45251;-71
2022/06/02 00:42:29;;;;;;;;;4.33;4.33;;;;;14.55;56.42;101360.06;5079551;28;45360;-71
2022/06/02 00:44:57;;;;;;;;;5.67;5.00;;;;;14.49;56.56;101347.44;5079694;28;45232;-71
2022/06/02 00:47:43;;;;;;;;;5.33;5.33;;;;;14.53;56.47;101356.72;5080034;27;45413;-71
2022/06/02 00:50:48;;;;;;;;;5.33;5.33;;;;;14.54;56.36;101355.72;5079739;27;45366;-71
2022/06/02 00:53:13;;;;;;;;;6.00;6.00;;;;;14.55;56.81;101360.06;5045366;27;46787;-71
2022/06/02 00:59:28;;;;;;;;;8.00;6.33;;;;;14.51;56.79;101358.75;5079832;28;45346;-72
2022/06/02 01:01:55;;;;;;;;;3.33;3.33;;;;;14.46;57.07;101355.81;5079567;28;45382;-71
2022/06/02 01:04:21;;;;;;;;;4.67;4.67;;;;;14.44;57.27;101347.13;5084510;27;45298;-71
2022/06/02 01:07:04;;;;;;;;;5.00;5.00;;;;;14.42;56.95;101346.50;5100151;27;45402;-71
2022/06/02 01:09:42;;;;;;;;;6.33;6.33;;;;;14.39;57.01;101345.00;5100317;27;45500;-71
2022/06/02 01:12:07;;;;;;;;;5.67;5.67;;;;;14.37;57.16;101339.84;5099861;27;45537;-71
2022/06/02 01:14:39;;;;;;;;;4.33;4.33;;;;;14.37;57.22;101341.72;5099959;27;45374;-71
2022/06/02 01:17:46;;;;;;;;;7.33;6.00;;;;;14.32;57.50;101341.41;5099721;27;45338;-71
2022/06/02 01:20:20;;;;;;;;;5.00;5.00;;;;;14.29;57.50;101336.44;5077163;28;45815;-71
2022/06/02 01:22:59;;;;;;;;;4.33;4.33;;;;;14.29;57.13;101350.66;5077082;28;45774;-71
2022/06/02 01:25:55;;;;;;;;;2.33;2.33;;;;;14.27;57.69;101342.81;5082283;27;46136;-71
2022/06/02 01:28:41;;;;;;;;;4.00;4.00;;;;;14.19;57.75;101324.16;5099763;27;45317;-71
2022/06/02 01:31:15;;;;;;;;;5.00;5.00;;;;;14.27;57.96;101342.81;5099536;27;45308;-71
2022/06/02 01:34:01;;;;;;;;;4.00;4.00;;;;;14.15;57.83;101317.53;5102126;27;45479;-71
2022/06/02 01:36:42;;;;;;;;;4.00;4.00;;;;;14.24;57.90;101337.84;5103247;27;45433;-71
2022/06/02 01:39:34;;;;;;;;;3.00;3.00;;;;;14.23;58.06;101346.88;5101910;27;45457;-71
2022/06/02 01:42:18;;;;;;;;;5.67;5.67;;;;;14.22;57.95;101347.88;5114197;27;45260;-71
2022/06/02 01:44:55;;;;;;;;;6.33;5.67;;;;;14.19;57.97;101342.88;5103295;27;45199;-71
2022/06/02 01:47:34;;;;;;;;;4.00;4.00;;;;;14.16;58.04;101340.59;5103233;27;45921;-71
2022/06/02 01:50:13;;;;;;;;;6.67;6.67;;;;;14.16;58.00;101343.28;5103180;27;45451;-71
2022/06/02 01:52:54;;;;;;;;;4.67;4.67;;;;;14.16;57.88;101345.94;5103359;27;45315;-70
2022/06/02 01:55:37;;;;;;;;;5.67;5.67;;;;;14.12;58.33;101347.31;5103020;27;45357;-71
2022/06/02 01:58:34;;;;;;;;;6.00;6.00;;;;;14.13;58.17;101346.31;5103026;27;46269;-71
2022/06/02 02:01:29;;;;;;;;;6.00;6.00;;;;;14.08;58.47;101352.22;5102795;27;45412;-71
2022/06/02 02:04:01;;;;;;;;;6.00;6.00;;;;;14.04;58.85;101352.75;5101667;27;45531;-71
2022/06/02 02:06:49;;;;;;;;;7.00;7.00;;;;;14.03;58.62;101351.91;5082455;28;45266;-70
2022/06/02 02:09:17;;;;;;;;;6.00;6.00;;;;;13.99;58.44;101361.31;5081947;27;45407;-70
2022/06/02 02:11:46;;;;;;;;;7.67;7.67;;;;;13.96;58.76;101354.50;5082255;28;45219;-71
2022/06/02 02:14:30;;;;;;;;;0.00;0.00;;;;;13.93;58.91;101349.50;5082493;28;45276;-71
2022/06/02 02:17:17;;;;;;;;;5.67;4.33;;;;;13.89;59.27;101353.56;5082032;27;45587;-71
2022/06/02 02:20:00;;;;;;;;;5.00;5.00;;;;;13.88;58.61;101349.22;5082221;28;45369;-71
2022/06/02 02:22:46;;;;;;;;;6.00;6.00;;;;;13.87;59.17;101353.75;5080748;28;45500;-71
2022/06/02 02:25:21;;;;;;;;;5.33;5.33;;;;;13.86;59.06;101357.41;5082261;28;45555;-71
2022/06/02 02:28:06;;;;;;;;;7.00;6.00;;;;;13.86;59.07;101351.25;5081954;28;45216;-71
2022/06/02 02:30:43;;;;;;;;;5.33;5.33;;;;;13.84;59.10;101346.09;5081910;28;45304;-71
2022/06/02 02:33:11;;;;;;;;;7.00;6.33;;;;;13.79;59.54;101344.94;5080536;28;45347;-71
2022/06/02 02:35:50;;;;;;;;;6.00;5.00;;;;;13.69;59.34;101332.69;5082035;28;45335;-71
2022/06/02 02:38:32;;;;;;;;;7.00;5.00;;;;;13.68;59.64;101328.34;5081918;27;45280;-71
2022/06/02 02:41:06;;;;;;;;;7.00;7.00;;;;;13.67;59.27;101324.03;5081648;27;45356;-71
2022/06/02 02:43:51;;;;;;;;;6.00;6.00;;;;;13.69;59.88;101334.53;5081454;27;45350;-70
2022/06/02 02:46:48;;;;;;;;;5.67;5.67;;;;;13.64;59.85;101329.72;5081507;27;46038;-71
2022/06/02 02:49:27;;;;;;;;;6.00;6.00;;;;;13.63;59.75;101336.94;5114397;27;46985;-71
2022/06/02 02:52:08;;;;;;;;;5.00;5.00;;;;;13.59;59.56;101324.91;5081848;27;46161;-71
2022/06/02 02:55:19;;;;;;;;;7.00;7.00;;;;;13.57;59.65;101320.78;5081681;27;45324;-71
2022/06/02 02:57:57;;;;;;;;;8.33;7.33;;;;;13.56;59.62;101330.63;5079159;27;45370;-71
2022/06/02 03:00:33;;;;;;;;;7.00;7.00;;;;;13.53;59.69;101332.84;5079814;28;46183;-71
2022/06/02 03:03:08;;;;;;;;;4.67;4.67;;;;;13.48;60.13;101342.19;5081526;27;46141;-71
2022/06/02 03:05:48;;;;;;;;;8.00;8.00;;;;;13.45;60.06;101347.88;5096472;27;45381;-71
2022/06/02 03:08:26;;;;;;;;;6.67;6.67;;;;;13.42;59.95;101350.06;5101910;27;45280;-71
2022/06/02 03:10:57;;;;;;;;;5.00;5.00;;;;;13.36;60.21;101349.78;5100378;27;47284;-71
2022/06/02 03:13:38;;;;;;;;;8.00;6.67;;;;;13.37;60.40;101353.28;5101738;27;45410;-71
2022/06/02 03:16:12;;;;;;;;;6.33;6.00;;;;;13.29;60.29;101346.13;5101603;27;45338;-71
2022/06/02 03:19:11;;;;;;;;;6.67;5.33;;;;;13.32;60.61;101351.13;5101892;27;45284;-71
2022/06/02 03:22:04;;;;;;;;;6.00;6.00;;;;;13.21;60.42;101330.19;5101743;27;45364;-71
2022/06/02 03:24:55;;;;;;;;;6.67;6.67;;;;;13.28;60.44;101343.66;5092647;27;46211;-71
2022/06/02 03:27:39;;;;;;;;;6.00;5.33;;;;;13.28;60.71;101338.31;5101449;27;45342;-70
2022/06/02 03:30:13;;;;;;;;;7.33;7.33;;;;;13.25;60.85;101337.66;5101501;27;45369;-71
2022/06/02 03:33:06;;;;;;;;;9.67;8.33;;;;;13.19;61.22;101337.53;5101431;27;45480;-71
2022/06/02 03:35:50;;;;;;;;;5.33;5.33;;;;;13.19;61.24;101345.53;5101354;27;45276;-71
2022/06/02 03:38:19;;;;;;;;;7.00;7.00;;;;;13.13;60.76;101345.25;5101509;27;45224;-71
2022/06/02 03:40:56;;;;;;;;;7.00;7.00;;;;;13.11;61.05;101355.25;5101402;27;45273;-71
2022/06/02 03:44:11;;;;;;;;;7.00;7.00;;;;;13.11;61.42;101365.94;5101418;27;45352;-71
2022/06/02 03:46:55;;;;;;;;;6.67;6.67;;;;;13.07;61.17;101361.97;5090301;27;45394;-71
2022/06/02 03:49:29;;;;;;;;;7.67;7.67;;;;;13.03;61.56;101359.81;5101371;27;45327;-71
2022/06/02 03:52:42;;;;;;;;;6.00;6.00;;;;;12.98;61.27;101357.69;5101353;27;45307;-71
2022/06/02 03:55:24;;;;;;;;;8.00;7.00;;;;;12.95;61.29;101358.03;5098310;27;45698;-71
2022/06/02 03:58:09;;;;;;;;;8.67;8.67;;;;;12.91;61.64;101359.38;5100905;27;45930;-71
2022/06/02 04:01:00;;;;;;;;;10.00;8.00;;;;;12.86;62.04;101366.09;5101053;27;45399;-70
2022/06/02 04:03:26;;;;;;;;;7.00;7.00;;;;;12.82;61.90;101370.09;5097865;27;45317;-71
2022/06/02 04:06:16;;;;;;;;;6.00;6.00;;;;;12.77;62.08;101366.28;5082973;27;45297;-71
2022/06/02 04:08:50;;;;;;;;;7.67;7.67;;;;;12.75;62.09;101372.63;5080443;27;45565;-71
2022/06/02 04:15:12;;;;;;;;;9.00;9.00;;;;;12.69;62.36;101370.66;5080263;28;45383;-71
2022/06/02 04:18:01;;;;;;;;;11.00;10.00;;;;;12.68;62.63;101381.47;5080324;28;45227;-71
2022/06/02 04:20:48;;;;;;;;;6.00;6.00;;;;;12.67;62.36;101383.34;5080398;28;45442;-71
2022/06/02 04:23:31;;;;;;;;;6.67;6.67;;;;;12.67;62.81;101375.34;5080242;28;45259;-71
2022/06/02 04:26:28;;;;;;;;;12.00;11.00;;;;;12.62;63.23;101359.00;5080358;28;45345;-72
2022/06/02 04:29:14;;;;;;;;;15.67;13.33;;;;;12.69;63.72;101369.84;5080257;28;45276;-71
2022/06/02 04:31:48;;;;;;;;;14.33;13.67;;;;;12.67;63.20;101370.00;5079645;28;46354;-71
2022/06/02 04:34:20;;;;;;;;;30.25;24.25;;;;;12.69;63.06;101367.16;5079902;28;45563;-71
2022/06/02 04:37:01;;;;;;;;;30.00;27.00;;;;;12.73;63.56;101377.31;5079934;28;45365;-70
2022/06/02 04:39:56;;;;;;;;;15.67;14.33;;;;;12.77;63.41;101382.28;5080045;28;45268;-70
2022/06/02 04:42:45;;;;;;;;;9.67;9.67;;;;;12.76;63.06;101386.81;5079703;28;45318;-71
2022/06/02 04:45:18;;;;;;;;;9.00;9.00;;;;;12.75;63.14;101377.13;5079654;28;45314;-71
2022/06/02 04:48:03;;;;;;;;;8.00;8.00;;;;;12.86;63.05;101399.91;5080037;28;45409;-70
2022/06/02 04:51:03;;;;;;;;;8.00;7.33;;;;;12.85;62.94;101398.25;5079577;28;45359;-71
2022/06/02 04:53:31;;;;;;;;;12.00;11.00;;;;;12.90;63.07;101408.41;5079666;28;46146;-70
2022/06/02 04:56:19;;;;;;;;;9.67;9.67;;;;;12.93;62.79;101403.56;5079615;28;45303;-70
2022/06/02 04:58:53;;;;;;;;;26.33;22.67;;;;;12.97;63.25;101401.38;5079809;28;45317;-70
2022/06/02 05:01:46;;;;;;;;;11.67;11.00;;;;;13.01;63.67;101405.34;5079521;28;45446;-70
2022/06/02 05:04:42;;;;;;;;;21.33;19.33;;;;;13.06;62.92;101404.84;5083118;27;45932;-70
2022/06/02 05:07:20;;;;;;;;;42.75;34.00;;;;;13.05;62.98;101384.50;5098824;27;45411;-70
2022/06/02 05:10:20;;;;;;;;;37.00;31.00;;;;;13.17;62.60;101388.41;5100074;27;45574;-71
2022/06/02 05:12:45;;;;;;;;;70.75;56.25;;;;;13.22;62.75;101390.56;5073608;28;45415;-72
2022/06/02 05:15:22;;;;;;;;;99.25;87.50;;;;;13.28;62.35;101394.38;5079058;28;45262;-72
2022/06/02 05:17:50;;;;;;;;;72.00;59.50;;;;;13.32;62.62;101390.34;5079569;27;45329;-72
2022/06/02 05:20:37;;;;;;;;;84.50;73.00;;;;;13.35;63.00;101385.47;5079714;28;45334;-72
2022/06/02 05:23:11;;;;;;;;;41.00;33.50;;;;;13.40;63.25;101395.63;5079487;27;45352;-72
2022/06/02 05:25:45;;;;;;;;;9.33;9.33;;;;;13.44;62.29;101391.59;5079344;27;45461;-71
2022/06/02 05:28:26;;;;;;;;;11.00;11.00;;;;;13.45;62.50;101382.59;5079362;27;45384;-72
2022/06/02 05:31:36;;;;;;;;;11.33;10.67;;;;;13.52;61.98;101382.72;5079425;27;45381;-72
2022/06/02 05:34:38;;;;;;;;;11.00;11.00;;;;;13.58;62.24;101381.19;5063315;27;45318;-73
2022/06/02 05:37:12;;;;;;;;;10.67;10.67;;;;;13.59;61.75;101375.66;5071312;27;46105;-72
2022/06/02 05:40:12;;;;;;;;;10.67;9.00;;;;;13.61;62.41;101375.47;5076418;28;45441;-71
2022/06/02 05:42:54;;;;;;;;;11.00;11.00;;;;;13.72;62.29;101390.25;5077609;28;45324;-72
2022/06/02 05:45:31;;;;;;;;;9.00;8.33;;;;;13.75;61.73;101382.75;5078964;27;45423;-72
2022/06/02 05:48:10;;;;;;;;;42.00;33.75;;;;;13.80;61.89;101376.81;5079147;27;46200;-72
2022/06/02 05:50:45;;;;;;;;;13.00;12.00;;;;;13.82;61.95;101363.28;5078970;27;45318;-72
2022/06/02 05:53:31;;;;;;;;;12.33;12.33;;;;;13.92;61.57;101382.56;5079304;28;45312;-72
2022/06/02 05:56:14;;;;;;;;;11.33;11.33;;;;;13.90;61.90;101368.56;5078866;27;45286;-72
2022/06/02 05:59:01;;;;;;;;;11.00;11.00;;;;;14.00;61.02;101379.00;5078866;27;46084;-71
2022/06/02 06:01:47;;;;;;;;;10.33;10.33;;;;;14.12;60.98;101388.25;5094435;27;46251;-72
2022/06/02 06:04:40;;;;;;;;;13.00;13.00;;;;;14.18;61.60;101392.03;5082896;27;45211;-72
2022/06/02 06:07:48;;;;;;;;;13.33;12.67;;;;;14.24;61.07;101393.97;5099031;27;45304;-72
2022/06/02 06:10:33;;;;;;;;;15.00;14.00;;;;;14.22;61.12;101371.13;5099328;27;45404;-71
2022/06/02 06:13:17;;;;;;;;;14.67;13.67;;;;;14.42;61.54;101392.78;5085278;27;45376;-71
2022/06/02 06:16:12;;;;;;;;;9.67;9.00;;;;;14.54;60.89;101393.16;5078683;28;45463;-72
2022/06/02 06:18:56;;;;;;;;;13.67;12.67;;;;;14.61;60.59;101383.38;5079577;28;45380;-71
2022/06/02 06:21:33;;;;;;;;;11.67;11.67;;;;;14.68;60.24;101390.66;5082199;27;46664;-71
2022/06/02 06:24:13;;;;;;;;;12.33;12.00;;;;;14.74;60.19;101380.06;5082383;27;45389;-70
2022/06/02 06:26:42;;;;;;;;;12.00;12.00;;;;;14.81;60.06;101392.72;5080932;28;45264;-72
2022/06/02 06:29:44;;;;;;;;;14.67;14.33;;;;;14.85;60.19;101380.63;5082078;27;45285;-72
2022/06/02 06:32:20;;;;;;;;;12.00;12.00;;;;;14.92;60.29;101386.03;5079870;28;45545;-71
2022/06/02 06:34:57;;;;;;;;;14.00;12.67;;;;;14.89;59.86;101381.91;5076935;28;45232;-71
2022/06/02 06:37:44;;;;;;;;;71.50;60.25;;;;;15.02;60.35;101392.75;5077233;28;45320;-71
2022/06/02 06:40:28;;;;;;;;;52.25;41.75;;;;;15.08;60.04;101393.84;5061624;28;45733;-71
2022/06/02 06:43:03;;;;;;;;;30.00;28.00;;;;;15.16;59.69;101382.22;5061291;28;45435;-71
2022/06/02 06:45:50;;;;;;;;;24.00;24.00;;;;;15.23;59.82;101384.94;5059941;28;45653;-71
2022/06/02 06:48:58;;;;;;;;;97.75;87.50;;;;;15.23;59.59;101391.13;5061410;28;45460;-72
2022/06/02 06:51:41;;;;;;;;;42.00;33.25;;;;;15.15;60.24;101372.53;5022207;28;45577;-73
2022/06/02 06:54:27;;;;;;;;;16.00;15.00;;;;;15.25;59.79;101391.78;5061273;28;46196;-71
2022/06/02 06:57:10;;;;;;;;;16.00;16.00;;;;;15.26;60.15;101390.75;5075942;27;45767;-72
2022/06/02 06:59:41;;;;;;;;;45.50;38.50;;;;;15.33;59.80;101390.84;5093870;27;45409;-71
2022/06/02 07:02:51;;;;;;;;;59.50;46.75;;;;;15.41;59.61;101395.22;5076884;27;45454;-71
2022/06/02 07:05:42;;;;;;;;;114.00;101.00;;;;;15.45;59.42;101388.50;5076458;27;45543;-74
2022/06/02 07:08:34;;;;;;;;;59.50;46.50;;;;;15.54;59.44;101402.59;5080684;28;45430;-72
2022/06/02 07:14:18;;;;;;;;;68.00;54.75;;;;;15.69;59.09;101399.00;5074377;27;45431;-72
2022/06/02 07:16:54;;;;;;;;;16.33;14.33;;;;;15.77;58.68;101394.34;5077167;28;46109;-71
2022/06/02 07:19:38;;;;;;;;;74.50;60.00;;;;;15.88;58.36;101393.00;5077241;27;45445;-72
2022/06/02 07:22:23;;;;;;;;;57.50;46.25;;;;;15.88;58.29;101381.44;5080017;27;45366;-72
2022/06/02 07:24:54;;;;;;;;;16.33;16.33;;;;;16.03;57.66;101390.25;5093239;27;46101;-72
2022/06/02 07:27:46;;;;;;;;;62.50;49.00;;;;;16.15;58.46;101397.75;5071635;28;45724;-72
2022/06/02 07:30:33;;;;;;;;;72.00;58.50;;;;;16.27;58.03;101398.88;5076351;28;45672;-72
2022/06/02 07:33:31;;;;;;;;;59.50;44.75;;;;;16.33;57.21;101397.25;5080515;27;45357;-72
2022/06/02 07:35:59;;;;;;;;;50.75;41.00;;;;;16.48;56.95;101407.03;5080407;27;45486;-72
2022/06/02 07:38:33;;;;;;;;;45.00;36.75;;;;;16.57;56.84;101405.00;5081125;28;46473;-72
2022/06/02 07:41:16;;;;;;;;;10.33;10.33;;;;;16.65;56.60;101405.66;5079562;28;46169;-72
2022/06/02 07:43:53;;;;;;;;;48.75;40.50;;;;;16.76;56.04;101403.47;5080850;27;45303;-72
2022/06/02 07:47:11;;;;;;;;;45.50;36.50;;;;;16.87;55.92;101404.75;5079889;27;45398;-72
2022/06/02 07:50:10;;;;;;;;;15.67;13.67;;;;;16.99;56.00;101405.00;5057017;27;45509;-72
2022/06/02 07:52:44;;;;;;;;;35.00;30.00;;;;;17.08;55.69;101402.97;5080857;27;45380;-72
2022/06/02 07:55:45;;;;;;;;;16.67;15.00;;;;;17.21;55.12;101402.22;5078905;28;45401;-72
2022/06/02 07:58:13;;;;;;;;;64.25;50.75;;;;;17.30;54.53;101409.03;5078788;27;45355;-75
2022/06/02 08:00:49;;;;;;;;;30.33;24.67;;;;;17.39;54.89;101415.06;5080416;27;45914;-73
2022/06/02 08:03:25;;;;;;;;;39.67;33.33;;;;;17.49;54.69;101409.28;5080613;28;45346;-71
2022/06/02 08:05:51;;;;;;;;;9.33;9.33;;;;;17.61;53.93;101398.75;5098144;27;45360;-71
2022/06/02 08:08:39;;;;;;;;;9.67;9.00;;;;;17.66;53.63;101390.94;5099505;27;47172;-71
2022/06/02 08:11:21;;;;;;;;;10.33;10.33;;;;;17.79;53.65;101385.56;5100819;27;46268;-71
2022/06/02 08:13:52;;;;;;;;;10.00;9.00;;;;;17.91;53.21;101399.19;5101039;27;45259;-71
2022/06/02 08:17:08;;;;;;;;;14.67;13.00;;;;;18.01;53.33;101390.69;5100975;27;45305;-72
2022/06/02 08:19:47;;;;;;;;;7.00;7.00;;;;;18.13;52.83;101392.78;5094001;27;46208;-72
2022/06/02 08:22:23;;;;;;;;;13.67;11.67;;;;;18.24;53.18;101384.09;5079384;27;45503;-72
2022/06/02 08:25:01;;;;;;;;;10.33;10.33;;;;;18.35;52.75;101379.09;5079504;28;45350;-72
2022/06/02 08:28:05;;;;;;;;;8.00;8.00;;;;;18.51;51.66;101383.19;5079580;27;45488;-71
2022/06/02 08:30:47;;;;;;;;;12.67;10.67;;;;;18.61;51.42;101382.72;5077890;28;45493;-72
2022/06/02 08:33:23;;;;;;;;;8.00;8.00;;;;;18.73;50.99;101378.34;5076456;27;45525;-72
2022/06/02 08:35:56;;;;;;;;;9.67;9.67;;;;;18.78;51.18;101370.47;5079317;27;45372;-72
2022/06/02 08:38:55;;;;;;;;;32.67;28.67;;;;;18.98;50.65;101374.94;5079534;27;45522;-71
2022/06/02 08:41:29;;;;;;;;;19.00;18.00;;;;;19.16;50.00;101373.41;5094829;27;47054;-71
2022/06/02 08:44:19;;;;;;;;;39.33;32.67;;;;;19.33;49.70;101368.31;5079065;27;47410;-72
2022/06/02 08:46:59;;;;;;;;;41.00;33.50;;;;;19.52;49.94;101366.50;5079193;27;45471;-71
2022/06/02 08:49:58;;;;;;;;;13.33;12.67;;;;;19.55;49.39;101355.28;5080078;27;45447;-71
2022/06/02 08:52:48;;;;;;;;;25.67;23.33;;;;;19.73;47.43;101355.56;5075790;27;45951;-72
2022/06/02 08:55:50;;;;;;;;;27.33;26.00;;;;;19.79;48.60;101357.38;5079660;27;45639;-71
2022/06/02 08:58:36;;;;;;;;;52.00;42.50;;;;;19.84;48.27;101335.16;5112444;27;45366;-72
2022/06/02 09:01:15;;;;;;;;;34.67;29.00;;;;;20.01;48.35;101347.03;5059398;28;45319;-72
2022/06/02 09:03:41;;;;;;;;;47.75;37.75;;;;;20.10;47.90;101335.94;5059258;28;45259;-71
2022/06/02 09:06:15;;;;;;;;;22.67;20.33;;;;;20.22;47.53;101338.72;5098626;27;45354;-71
2022/06/02 09:09:20;;;;;;;;;16.33;15.00;;;;;20.38;47.19;101337.31;5098563;27;45863;-71
2022/06/02 09:12:32;;;;;;;;;10.67;10.67;;;;;20.56;46.78;101336.44;5094967;27;45353;-71
2022/06/02 09:15:12;;;;;;;;;63.50;48.75;;;;;20.75;45.94;101345.38;5080743;27;45674;-72
2022/06/02 09:18:03;;;;;;;;;35.33;29.00;;;;;20.87;45.74;101337.31;5079260;28;45356;-72
2022/06/02 09:20:40;;;;;;;;;19.67;18.00;;;;;21.04;45.44;101340.19;5077945;28;45389;-71
2022/06/02 09:23:27;;;;;;;;;10.00;10.00;;;;;21.17;44.41;101331.09;5078774;28;45256;-71
2022/06/02 09:25:55;;;;;;;;;5.67;5.33;;;;;21.24;43.66;101340.94;5078034;28;45628;-72
2022/06/02 09:28:38;;;;;;;;;69.50;55.00;;;;;21.30;43.00;101340.88;5079117;27;45488;-72
2022/06/02 09:31:03;;;;;;;;;3.33;3.33;;;;;21.40;42.23;101336.78;5073104;27;45397;-71
2022/06/02 09:34:07;;;;;;;;;48.00;39.00;;;;;21.47;42.49;101340.19;5078061;28;45336;-71
2022/06/02 09:37:06;;;;;;;;;75.00;68.25;;;;;21.64;42.86;101345.72;5037694;27;45262;-71
2022/06/02 09:40:09;;;;;;;;;66.50;51.75;;;;;21.81;43.01;101340.47;5077794;28;48318;-73
2022/06/02 09:42:53;;;;;;;;;9.33;8.33;;;;;21.89;42.83;101342.00;5078822;28;45343;-72
2022/06/02 09:45:56;;;;;;;;;19.67;17.33;;;;;21.93;41.69;101347.75;5079059;28;45245;-71
2022/06/02 09:48:37;;;;;;;;;27.00;22.33;;;;;21.96;41.49;101347.28;5078938;28;45364;-71
2022/06/02 09:51:50;;;;;;;;;22.33;20.67;;;;;22.00;41.02;101347.63;5078864;28;45562;-72
2022/06/02 09:54:44;;;;;;;;;60.75;48.00;;;;;22.05;41.28;101350.44;5035462;27;45536;-71
2022/06/02 09:57:55;;;;;;;;;69.75;60.00;;;;;22.08;41.08;101347.25;5044111;27;45285;-72
2022/06/02 10:00:39;;;;;;;;;42.33;34.33;;;;;22.12;40.22;101339.50;5082170;28;46135;-72
2022/06/02 10:03:16;;;;;;;;;21.67;20.33;;;;;22.19;40.68;101353.72;5082350;28;45404;-72
2022/06/02 10:05:54;;;;;;;;;20.00;17.67;;;;;22.28;40.10;101338.78;5098624;27;45317;-72
2022/06/02 10:08:44;;;;;;;;;6.33;6.33;;;;;22.38;40.58;101337.31;5102975;27;45314;-72
2022/06/02 10:12:54;;;;;;;;;5.00;5.00;;;;;22.54;40.32;101346.59;5102751;27;45334;-73
2022/06/02 10:15:23;;;;;;;;;33.67;30.33;;;;;22.69;39.97;101346.91;5088565;27;45336;-72
2022/06/02 10:17:56;;;;;;;;;5.33;5.33;;;;;22.83;38.57;101341.19;5098535;27;45614;-71
2022/06/02 10:20:41;;;;;;;;;3.33;3.33;;;;;22.92;38.80;101342.44;5102946;27;45224;-73
2022/06/02 10:23:41;;;;;;;;;8.67;8.00;;;;;23.08;38.56;101340.03;5102514;27;45289;-74
2022/06/02 10:26:27;;;;;;;;;27.67;27.67;;;;;23.24;39.08;101326.72;5100946;27;47672;-76
2022/06/02 10:29:27;;;;;;;;;14.00;10.67;;;;;23.35;38.18;101312.28;5101102;27;45464;-72
2022/06/02 10:32:31;;;;;;;;;10.00;10.00;;;;;23.50;37.88;101311.72;5102737;27;45234;-74
2022/06/02 10:35:18;;;;;;;;;6.00;5.67;;;;;23.67;38.01;101324.41;5101000;27;47400;-73
2022/06/02 10:38:05;;;;;;;;;32.67;29.00;;;;;23.80;37.90;101323.28;5102142;27;45361;-72
2022/06/02 10:41:10;;;;;;;;;37.33;31.33;;;;;23.90;37.50;101317.16;5102096;27;45411;-72
2022/06/02 10:44:07;;;;;;;;;22.00;20.33;;;;;24.14;37.13;101322.38;5101073;27;45387;-72
2022/06/02 10:46:47;;;;;;;;;35.33;30.33;;;;;24.25;36.24;101312.47;5101989;27;45398;-72
2022/06/02 10:49:30;;;;;;;;;68.50;58.25;;;;;24.41;36.63;101318.91;5102215;27;45387;-72
2022/06/02 10:52:30;;;;;;;;;43.33;37.00;;;;;24.60;36.18;101313.94;5102282;27;45282;-73
2022/06/02 10:55:24;;;;;;;;;22.33;22.00;;;;;24.77;36.10;101305.69;5097536;27;45455;-72
2022/06/02 10:58:08;;;;;;;;;12.00;12.00;;;;;24.93;35.95;101316.75;5080465;27;45505;-72
2022/06/02 11:01:04;;;;;;;;;24.67;22.33;;;;;25.18;35.78;101318.03;5080195;28;45439;-74
2022/06/02 11:03:41;;;;;;;;;69.00;58.00;;;;;25.29;35.35;101316.25;5080312;28;46613;-72
2022/06/02 11:06:30;;;;;;;;;18.00;18.00;;;;;25.38;35.31;101320.09;5081552;27;45415;-75
2022/06/02 11:09:38;;;;;;;;;4.67;4.67;;;;;25.52;34.34;101315.03;5080836;27;45262;-75
2022/06/02 11:12:26;;;;;;;;;35.67;31.67;;;;;25.76;34.66;101308.38;5032620;28;47248;-73
2022/06/02 11:15:09;;;;;;;;;14.33;13.33;;;;;25.97;34.15;101315.59;5079531;28;45399;-73
2022/06/02 11:18:07;;;;;;;;;26.67;24.00;;;;;26.07;34.37;101301.19;5080052;28;45309;-74
2022/06/02 11:20:35;;;;;;;;;9.67;9.67;;;;;26.20;33.58;101307.25;5081143;27;45348;-76
2022/06/02 11:23:26;;;;;;;;;40.00;31.33;;;;;26.40;34.14;101297.53;5079891;28;47661;-75
2022/06/02 11:26:10;;;;;;;;;26.33;21.00;;;;;26.57;33.85;101292.66;5079821;28;45481;-74
2022/06/02 11:29:06;;;;;;;;;21.67;20.67;;;;;26.65;32.63;101288.59;5081400;27;45400;-75
2022/06/02 11:31:56;;;;;;;;;6.00;6.00;;;;;26.62;31.94;101280.13;5080872;28;45293;-74
2022/06/02 11:35:02;;;;;;;;;23.67;21.33;;;;;26.47;31.36;101276.28;5081130;27;46386;-74
2022/06/02 11:38:08;;;;;;;;;5.00;5.00;;;;;26.28;32.18;101265.84;5081037;28;45288;-72
2022/06/02 11:41:04;;;;;;;;;11.67;10.33;;;;;26.44;32.13;101274.09;5081093;28;45417;-72
2022/06/02 11:43:51;;;;;;;;;48.00;40.00;;;;;26.53;31.97;101272.50;5079528;28;47043;-72
2022/06/02 11:46:54;;;;;;;;;8.00;6.00;;;;;26.69;32.71;101272.50;5079006;28;47208;-73
2022/06/02 11:49:50;;;;;;;;;3.33;3.33;;;;;26.73;31.45;101276.34;5080961;28;45447;-73
2022/06/02 11:52:53;;;;;;;;;4.00;4.00;;;;;26.88;31.68;101278.25;5080794;28;45507;-72
2022/06/02 11:55:32;;;;;;;;;5.00;4.67;;;;;27.02;31.49;101273.09;5077294;28;45930;-72
2022/06/02 11:58:28;;;;;;;;;5.00;5.00;;;;;27.13;31.57;101270.34;5071631;27;46646;-73
2022/06/02 12:01:30;;;;;;;;;4.00;3.00;;;;;27.26;29.51;101274.44;5057150;28;45806;-72
2022/06/02 12:04:53;;;;;;;;;57.33;45.33;;;;;27.43;30.04;101255.84;5081060;27;45449;-72
2022/06/02 12:07:55;;;;;;;;;10.67;10.67;;;;;27.54;29.90;101253.94;5072716;28;45554;-72
2022/06/02 12:10:29;;;;;;;;;17.33;16.00;;;;;27.54;29.56;101251.19;5040451;28;47316;-73
2022/06/02 12:13:04;;;;;;;;;20.00;20.00;;;;;27.56;29.41;101246.25;5074424;28;45386;-72
2022/06/02 12:16:10;;;;;;;;;14.33;13.67;;;;;27.58;29.61;101237.78;5080367;27;45410;-72
2022/06/02 12:19:02;;;;;;;;;40.67;34.00;;;;;27.56;29.55;101240.81;5080118;27;45455;-72
2022/06/02 12:21:48;;;;;;;;;3.33;3.33;;;;;27.41;28.37;101238.13;5080392;28;45351;-71
2022/06/02 12:24:49;;;;;;;;;3.33;3.33;;;;;27.17;28.54;101231.34;5080349;27;45284;-72
2022/06/02 12:27:53;;;;;;;;;4.00;4.00;;;;;27.10;28.96;101234.38;5080397;27;45369;-72
2022/06/02 12:30:33;;;;;;;;;2.00;2.00;;;;;26.96;28.37;101217.72;5007700;27;45335;-74
2022/06/02 12:33:01;;;;;;;;;2.00;2.00;;;;;27.12;28.51;101225.09;5080397;28;45465;-74
2022/06/02 12:36:04;;;;;;;;;4.00;3.33;;;;;27.27;29.17;101227.81;5075557;28;45367;-73
2022/06/02 12:38:51;;;;;;;;;5.00;5.00;;;;;27.56;28.99;101216.25;5059632;28;45374;-72
2022/06/02 12:41:32;;;;;;;;;5.00;3.67;;;;;27.58;28.15;101205.03;5059518;28;45342;-72
2022/06/02 12:44:23;;;;;;;;;3.33;3.33;;;;;27.46;27.93;101208.09;5058929;28;45673;-72
2022/06/02 12:47:03;;;;;;;;;2.00;2.00;;;;;27.45;28.64;101210.00;5059778;28;45732;-72
2022/06/02 12:49:56;;;;;;;;;3.67;3.67;;;;;27.35;28.04;101210.84;5058243;28;45371;-72
2022/06/02 12:52:53;;;;;;;;;13.33;11.00;;;;;27.23;28.90;101202.97;5057275;28;46319;-72